Time;durP1;ratioP1;P1;durP2;ratioP2;P2;SDS_P1;SDS_P2;PMS_P1;PMS_P2;Temp;Humidity;BMP_temperature;BMP_pressure;BME280_temperature;BME280_humidity;BME280_pressure;Samples;Min_cycle;Max_cycle;Signal;HPM_P1;HPM_P2
2022/05/16 00:01:34;;;;;;;11.35;7.38;;;;;;;;;;10355741;28;20068;-58
2022/05/16 00:06:32;;;;;;;8.10;7.30;;;;;;;;;;10355656;28;20071;-58
2022/05/16 00:11:32;;;;;;;9.23;7.38;;;;;;;;;;10355560;28;20082;-58
2022/05/16 00:16:30;;;;;;;6.93;6.32;;;;;;;;;;10356698;28;20075;-58
2022/05/16 00:21:33;;;;;;;8.50;7.60;;;;;;;;;;10356853;28;20504;-58
2022/05/16 00:26:34;;;;;;;8.30;6.70;;;;;;;;;;10348820;28;20456;-58
2022/05/16 00:31:32;;;;;;;7.95;7.18;;;;;;;;;;10355110;28;20462;-57
2022/05/16 00:36:30;;;;;;;8.38;7.50;;;;;;;;;;10355452;28;20068;-56
2022/05/16 00:41:29;;;;;;;12.32;7.20;;;;;;;;;;10355070;28;20068;-57
2022/05/16 00:46:30;;;;;;;8.05;7.35;;;;;;;;;;10354950;28;20087;-58
2022/05/16 00:51:31;;;;;;;7.55;6.95;;;;;;;;;;10354856;28;20072;-58
2022/05/16 00:56:30;;;;;;;8.18;7.38;;;;;;;;;;10354890;28;20496;-57
2022/05/16 01:06:46;;;;;;;8.23;7.53;;;;;;;;;;10362107;28;20133;-57
2022/05/16 01:11:44;;;;;;;8.05;7.38;;;;;;;;;;10362677;28;20083;-57
2022/05/16 01:16:44;;;;;;;10.07;8.07;;;;;;;;;;10361189;28;20071;-58
2022/05/16 01:21:42;;;;;;;8.70;7.80;;;;;;;;;;10355796;28;20409;-58
2022/05/16 01:26:42;;;;;;;7.72;7.03;;;;;;;;;;10351296;28;20067;-56
2022/05/16 01:31:43;;;;;;;7.38;6.78;;;;;;;;;;10356330;28;20067;-57
2022/05/16 01:36:41;;;;;;;8.25;7.45;;;;;;;;;;10355834;28;20060;-59
2022/05/16 01:41:39;;;;;;;14.48;8.15;;;;;;;;;;10354551;28;20497;-57
2022/05/16 01:46:40;;;;;;;8.57;7.68;;;;;;;;;;10360559;28;20079;-56
2022/05/16 01:51:38;;;;;;;8.68;7.88;;;;;;;;;;10360086;28;20061;-57
2022/05/16 01:56:37;;;;;;;8.48;7.68;;;;;;;;;;10360192;28;20044;-57
2022/05/16 02:01:35;;;;;;;10.00;8.05;;;;;;;;;;10360177;28;20453;-55
2022/05/16 02:06:36;;;;;;;9.60;8.70;;;;;;;;;;10359748;28;20091;-57
2022/05/16 02:11:35;;;;;;;8.85;8.05;;;;;;;;;;10359349;28;20086;-57
2022/05/16 02:16:33;;;;;;;10.57;8.40;;;;;;;;;;10359463;28;20040;-57
2022/05/16 02:26:48;;;;;;;9.32;7.20;;;;;;;;;;10359331;28;20080;-58
2022/05/16 02:31:47;;;;;;;8.10;7.30;;;;;;;;;;10358775;28;20425;-57
2022/05/16 02:36:45;;;;;;;10.20;7.93;;;;;;;;;;10358694;28;20068;-58
2022/05/16 02:41:44;;;;;;;9.02;8.23;;;;;;;;;;10358758;28;20040;-57
2022/05/16 02:46:44;;;;;;;9.18;8.23;;;;;;;;;;10351848;28;20098;-57
2022/05/16 02:51:42;;;;;;;9.48;8.57;;;;;;;;;;10351771;28;20090;-55
2022/05/16 02:56:40;;;;;;;12.70;9.65;;;;;;;;;;10351400;28;20068;-55
2022/05/16 03:01:38;;;;;;;10.90;8.73;;;;;;;;;;10357638;28;20059;-58
2022/05/16 03:06:38;;;;;;;10.30;9.13;;;;;;;;;;10356867;28;20078;-58
2022/05/16 03:11:36;;;;;;;10.02;8.50;;;;;;;;;;10357352;28;20056;-58
2022/05/16 03:16:36;;;;;;;13.20;9.65;;;;;;;;;;10357097;28;20106;-58
2022/05/16 03:21:34;;;;;;;10.68;9.45;;;;;;;;;;10355816;28;20076;-58
2022/05/16 03:26:34;;;;;;;11.13;10.13;;;;;;;;;;10356169;28;20079;-58
2022/05/16 03:31:33;;;;;;;12.50;9.90;;;;;;;;;;10356190;28;20068;-58
2022/05/16 03:36:31;;;;;;;9.60;8.68;;;;;;;;;;10356192;28;20055;-57
2022/05/16 03:41:29;;;;;;;10.43;9.35;;;;;;;;;;10356623;28;20044;-57
2022/05/16 03:46:29;;;;;;;13.40;12.07;;;;;;;;;;10355372;28;20071;-58
2022/05/16 03:51:27;;;;;;;23.17;17.98;;;;;;;;;;10355937;28;20462;-58
2022/05/16 03:56:27;;;;;;;10.77;9.77;;;;;;;;;;10355825;28;20048;-58
2022/05/16 04:01:27;;;;;;;23.50;21.10;;;;;;;;;;10355349;28;20081;-58
2022/05/16 04:06:27;;;;;;;14.48;12.13;;;;;;;;;;10354862;28;20068;-58
2022/05/16 04:11:25;;;;;;;38.28;33.80;;;;;;;;;;10356411;28;20055;-58
2022/05/16 04:16:24;;;;;;;19.20;17.38;;;;;;;;;;10356775;28;20068;-57
2022/05/16 04:21:22;;;;;;;15.15;13.55;;;;;;;;;;10354645;28;20055;-57
2022/05/16 04:26:22;;;;;;;13.98;12.50;;;;;;;;;;10351993;28;20477;-57
2022/05/16 04:31:20;;;;;;;18.17;16.38;;;;;;;;;;10352915;28;20068;-57
2022/05/16 04:36:19;;;;;;;17.52;11.75;;;;;;;;;;10359416;28;20079;-55
2022/05/16 04:46:34;;;;;;;11.60;10.57;;;;;;;;;;10360550;28;20521;-58
2022/05/16 04:51:33;;;;;;;10.30;9.23;;;;;;;;;;10362606;28;20024;-58
2022/05/16 04:56:31;;;;;;;10.98;8.85;;;;;;;;;;10360456;28;20095;-58
2022/05/16 05:01:29;;;;;;;10.27;9.05;;;;;;;;;;10360953;28;20094;-58
2022/05/16 05:06:29;;;;;;;19.58;9.02;;;;;;;;;;10360570;28;20067;-57
2022/05/16 05:16:43;;;;;;;8.95;8.05;;;;;;;;;;10359464;28;20063;-58
2022/05/16 05:21:43;;;;;;;10.98;8.13;;;;;;;;;;10358591;28;20064;-55
2022/05/16 05:26:42;;;;;;;13.20;8.95;;;;;;;;;;10352206;28;20076;-58
2022/05/16 05:31:42;;;;;;;9.30;8.40;;;;;;;;;;10358330;28;20135;-58
2022/05/16 05:36:41;;;;;;;11.60;10.40;;;;;;;;;;10359852;28;20075;-58
2022/05/16 05:41:41;;;;;;;10.07;9.07;;;;;;;;;;10360039;28;20074;-58
2022/05/16 05:46:41;;;;;;;12.52;11.18;;;;;;;;;;10356575;28;20059;-57
2022/05/16 05:51:39;;;;;;;12.50;11.23;;;;;;;;;;10354214;28;20454;-58
2022/05/16 05:56:38;;;;;;;11.13;10.13;;;;;;;;;;10356485;28;20073;-57
2022/05/16 06:01:38;;;;;;;9.75;8.85;;;;;;;;;;10357983;28;20067;-58
2022/05/16 06:06:36;;;;;;;14.98;12.57;;;;;;;;;;10359682;28;20082;-59
2022/05/16 06:11:34;;;;;;;10.48;9.48;;;;;;;;;;10359610;28;20079;-57
2022/05/16 06:16:33;;;;;;;14.18;12.70;;;;;;;;;;10359162;28;20059;-58
2022/05/16 06:21:32;;;;;;;12.75;11.57;;;;;;;;;;10359110;28;20540;-58
2022/05/16 06:26:31;;;;;;;9.38;8.57;;;;;;;;;;10358621;28;20540;-58
2022/05/16 06:31:29;;;;;;;12.77;8.05;;;;;;;;;;10358931;28;20048;-58
2022/05/16 06:36:28;;;;;;;11.10;9.93;;;;;;;;;;10358868;28;20079;-57
2022/05/16 06:41:28;;;;;;;9.98;8.55;;;;;;;;;;10359810;28;20044;-58
2022/05/16 06:46:26;;;;;;;8.50;7.55;;;;;;;;;;10360019;28;20087;-59
2022/05/16 06:51:24;;;;;;;16.13;8.77;;;;;;;;;;10357280;28;20075;-60
2022/05/16 06:56:23;;;;;;;15.40;8.57;;;;;;;;;;10356996;28;20079;-57
2022/05/16 07:01:22;;;;;;;12.45;7.97;;;;;;;;;;10355040;28;20504;-57
2022/05/16 07:06:21;;;;;;;12.73;7.63;;;;;;;;;;10353805;28;20080;-58
2022/05/16 07:11:19;;;;;;;9.60;6.90;;;;;;;;;;10356962;28;20481;-58
2022/05/16 07:16:17;;;;;;;9.23;6.32;;;;;;;;;;10350459;28;20078;-58
2022/05/16 07:21:17;;;;;;;10.00;6.03;;;;;;;;;;10356792;28;20071;-58
2022/05/16 07:31:31;;;;;;;5.65;5.03;;;;;;;;;;10355714;28;20075;-58
2022/05/16 07:36:31;;;;;;;11.48;6.13;;;;;;;;;;10355978;28;20493;-56
2022/05/16 07:41:31;;;;;;;10.13;6.40;;;;;;;;;;10355950;28;20079;-58
2022/05/16 07:46:29;;;;;;;9.05;6.43;;;;;;;;;;10355991;28;20087;-58
2022/05/16 07:51:27;;;;;;;7.90;5.63;;;;;;;;;;10355576;28;20071;-58
2022/05/16 07:56:27;;;;;;;6.82;6.03;;;;;;;;;;10354970;28;20083;-58
2022/05/16 08:01:25;;;;;;;10.63;6.15;;;;;;;;;;10355492;28;20070;-58
2022/05/16 08:06:27;;;;;;;10.10;6.10;;;;;;;;;;10354592;28;20075;-58
2022/05/16 08:11:26;;;;;;;7.38;5.97;;;;;;;;;;10352450;28;20091;-60
2022/05/16 08:16:25;;;;;;;12.18;5.82;;;;;;;;;;10355318;28;20087;-59
2022/05/16 08:21:23;;;;;;;7.40;5.70;;;;;;;;;;10355402;28;20056;-58
2022/05/16 08:26:21;;;;;;;6.75;5.90;;;;;;;;;;10355573;28;20102;-57
2022/05/16 08:31:21;;;;;;;8.52;5.80;;;;;;;;;;10349903;28;20461;-57
2022/05/16 08:41:40;;;;;;;8.48;5.47;;;;;;;;;;10354453;28;20075;-57
2022/05/16 08:46:42;;;;;;;5.93;5.32;;;;;;;;;;10354688;28;20068;-58
2022/05/16 08:51:41;;;;;;;11.73;5.70;;;;;;;;;;10347439;28;20068;-58
2022/05/16 08:56:42;;;;;;;11.25;5.07;;;;;;;;;;10355141;28;20087;-57
2022/05/16 09:01:44;;;;;;;14.55;5.90;;;;;;;;;;10344544;28;20068;-58
2022/05/16 09:06:45;;;;;;;8.82;5.32;;;;;;;;;;10355098;28;20083;-58
2022/05/16 09:11:46;;;;;;;9.57;5.88;;;;;;;;;;10348159;28;20068;-57
2022/05/16 09:16:50;;;;;;;10.95;6.35;;;;;;;;;;10348476;28;20090;-61
2022/05/16 09:21:48;;;;;;;;;;;;;;;;;;10362596;28;20382;-58
2022/05/16 09:26:50;;;;;;;6.47;4.32;;;;;;;;;;10362713;28;19951;-59
2022/05/16 09:31:52;;;;;;;6.15;4.03;;;;;;;;;;10362589;28;20044;-58
2022/05/16 09:36:58;;;;;;;7.47;4.07;;;;;;;;;;10361359;28;20080;-58
2022/05/16 09:42:02;;;;;;;4.57;3.60;;;;;;;;;;10360905;28;20450;-58
2022/05/16 09:47:23;;;;;;;4.35;3.47;;;;;;;;;;10360591;28;20072;-58
2022/05/16 09:52:21;;;;;;;3.95;3.33;;;;;;;;;;10360271;28;20083;-58
2022/05/16 09:57:21;;;;;;;5.57;3.05;;;;;;;;;;10359962;28;20074;-58
2022/05/16 10:02:23;;;;;;;4.03;2.70;;;;;;;;;;10360271;28;20076;-58
2022/05/16 10:07:24;;;;;;;3.42;3.10;;;;;;;;;;10359640;28;20480;-58
2022/05/16 10:12:23;;;;;;;4.85;3.22;;;;;;;;;;10359923;28;20091;-58
2022/05/16 10:17:26;;;;;;;5.25;2.85;;;;;;;;;;10359688;28;20076;-58
2022/05/16 10:22:25;;;;;;;3.97;3.28;;;;;;;;;;10359099;28;20071;-58
2022/05/16 10:27:44;;;;;;;3.78;3.47;;;;;;;;;;10354529;28;20502;-58
2022/05/16 10:38:03;;;;;;;7.32;4.50;;;;;;;;;;10359187;28;20071;-58
2022/05/16 10:43:11;;;;;;;5.57;4.00;;;;;;;;;;10358170;28;20070;-59
2022/05/16 10:48:15;;;;;;;6.47;5.03;;;;;;;;;;10357788;28;20509;-58
2022/05/16 10:53:17;;;;;;;4.72;3.30;;;;;;;;;;10357461;28;20067;-58
2022/05/16 10:58:23;;;;;;;6.68;4.38;;;;;;;;;;10358005;28;20052;-58
2022/05/16 11:03:35;;;;;;;4.47;4.00;;;;;;;;;;10350953;28;20064;-56
2022/05/16 11:08:38;;;;;;;5.35;4.10;;;;;;;;;;10352792;28;20087;-58
2022/05/16 11:13:39;;;;;;;5.20;3.63;;;;;;;;;;10358068;28;20062;-58
2022/05/16 11:18:45;;;;;;;4.40;3.65;;;;;;;;;;10357706;28;20476;-59
2022/05/16 11:23:54;;;;;;;3.88;3.53;;;;;;;;;;10353378;28;20075;-59
2022/05/16 11:34:24;;;;;;;5.70;4.43;;;;;;;;;;10337059;28;20327;-59
2022/05/16 11:39:23;;;;;;;4.60;3.80;;;;;;;;;;10356396;28;20114;-58
2022/05/16 11:44:30;;;;;;;5.78;4.25;;;;;;;;;;10355304;28;20098;-58
2022/05/16 11:49:33;;;;;;;4.82;3.70;;;;;;;;;;10354666;28;20079;-59
2022/05/16 11:54:57;;;;;;;6.65;3.60;;;;;;;;;;10355387;28;20052;-57
2022/05/16 12:05:31;;;;;;;4.85;4.40;;;;;;;;;;10355215;28;20070;-58
2022/05/16 12:10:30;;;;;;;4.13;3.80;;;;;;;;;;10353137;28;20071;-58
2022/05/16 12:15:32;;;;;;;7.00;4.65;;;;;;;;;;10353443;28;20074;-58
2022/05/16 12:21:00;;;;;;;4.80;3.97;;;;;;;;;;10351299;28;20064;-58
2022/05/16 12:25:59;;;;;;;5.45;3.95;;;;;;;;;;10354392;28;20441;-58
2022/05/16 12:30:58;;;;;;;5.97;4.25;;;;;;;;;;10352973;28;20079;-58
2022/05/16 12:35:57;;;;;;;6.90;5.25;;;;;;;;;;10351654;28;20059;-58
2022/05/16 12:41:14;;;;;;;6.00;4.70;;;;;;;;;;10350247;28;20071;-58
2022/05/16 12:46:19;;;;;;;7.45;5.75;;;;;;;;;;10352939;28;20086;-58
2022/05/16 12:51:30;;;;;;;5.50;4.00;;;;;;;;;;10353448;28;20508;-58
2022/05/16 12:56:32;;;;;;;4.78;4.20;;;;;;;;;;10360188;28;20449;-58
2022/05/16 13:01:33;;;;;;;6.28;4.05;;;;;;;;;;10362244;28;20497;-59
2022/05/16 13:06:47;;;;;;;9.75;4.40;;;;;;;;;;10361078;28;20075;-58
2022/05/16 13:11:50;;;;;;;6.18;4.68;;;;;;;;;;10358732;28;20083;-59
2022/05/16 13:17:06;;;;;;;4.90;4.13;;;;;;;;;;10361109;28;20078;-60
2022/05/16 13:22:06;;;;;;;6.50;4.70;;;;;;;;;;10359201;28;20101;-60
2022/05/16 13:32:38;;;;;;;8.45;4.40;;;;;;;;;;10360457;28;20052;-60
2022/05/16 13:37:46;;;;;;;6.18;4.38;;;;;;;;;;10360682;28;20094;-59
2022/05/16 13:42:46;;;;;;;7.00;4.93;;;;;;;;;;10360895;28;20087;-60
2022/05/16 13:47:44;;;;;;;9.05;4.65;;;;;;;;;;10360189;28;20075;-59
2022/05/16 13:52:42;;;;;;;8.02;4.43;;;;;;;;;;10355279;28;20068;-60
2022/05/16 13:57:41;;;;;;;5.40;4.20;;;;;;;;;;10360654;28;20072;-60
2022/05/16 14:02:41;;;;;;;5.78;4.20;;;;;;;;;;10360313;28;20072;-60
2022/05/16 14:07:39;;;;;;;5.45;4.97;;;;;;;;;;10358031;28;20563;-60
2022/05/16 14:12:40;;;;;;;5.35;4.32;;;;;;;;;;10358942;28;20083;-59
2022/05/16 14:17:40;;;;;;;8.23;5.22;;;;;;;;;;10355892;28;20071;-60
2022/05/16 14:22:46;;;;;;;5.15;4.40;;;;;;;;;;10359070;28;20454;-60
2022/05/16 14:27:45;;;;;;;8.77;4.47;;;;;;;;;;10356973;28;20068;-59
2022/05/16 14:32:45;;;;;;;5.72;4.80;;;;;;;;;;10357843;28;20098;-60
2022/05/16 14:37:44;;;;;;;5.65;4.50;;;;;;;;;;10356709;28;20516;-60
2022/05/16 14:42:44;;;;;;;5.82;4.78;;;;;;;;;;10357537;28;20040;-60
2022/05/16 14:47:44;;;;;;;11.25;3.97;;;;;;;;;;10358172;28;20083;-60
2022/05/16 14:52:45;;;;;;;9.60;5.78;;;;;;;;;;10355155;28;20060;-59
2022/05/16 14:57:45;;;;;;;8.10;4.63;;;;;;;;;;10353183;28;20513;-60
2022/05/16 15:07:58;;;;;;;4.85;4.30;;;;;;;;;;10357165;28;20075;-59
2022/05/16 15:12:58;;;;;;;6.25;3.90;;;;;;;;;;10358080;28;20056;-59
2022/05/16 15:17:56;;;;;;;10.15;5.85;;;;;;;;;;10356709;28;20060;-59
2022/05/16 15:22:54;;;;;;;4.68;3.70;;;;;;;;;;10357615;28;20468;-59
2022/05/16 15:27:52;;;;;;;6.07;4.65;;;;;;;;;;10357205;28;20086;-59
2022/05/16 15:32:52;;;;;;;3.65;3.30;;;;;;;;;;10356809;28;20044;-59
2022/05/16 15:37:50;;;;;;;4.65;3.30;;;;;;;;;;10356779;28;20043;-59
2022/05/16 15:42:48;;;;;;;6.05;4.65;;;;;;;;;;10356960;28;20059;-59
2022/05/16 15:47:47;;;;;;;5.85;4.40;;;;;;;;;;10356755;28;20090;-60
2022/05/16 15:52:48;;;;;;;7.03;4.10;;;;;;;;;;10356403;28;20437;-61
2022/05/16 15:57:47;;;;;;;6.50;4.13;;;;;;;;;;10356075;28;20048;-61
2022/05/16 16:02:46;;;;;;;9.27;6.45;;;;;;;;;;10354403;28;20587;-60
2022/05/16 16:13:01;;;;;;;7.07;4.30;;;;;;;;;;10349053;28;20076;-59
2022/05/16 16:17:59;;;;;;;8.73;4.75;;;;;;;;;;10352359;28;20528;-59
2022/05/16 16:22:58;;;;;;;6.35;3.80;;;;;;;;;;10350926;28;20067;-60
2022/05/16 16:27:56;;;;;;;8.20;5.57;;;;;;;;;;10355684;28;20457;-59
2022/05/16 16:32:56;;;;;;;9.13;5.63;;;;;;;;;;10361444;28;20154;-59
2022/05/16 16:37:59;;;;;;;10.65;6.15;;;;;;;;;;10361604;28;20487;-59
2022/05/16 16:42:57;;;;;;;10.27;6.18;;;;;;;;;;10360445;28;20089;-59
2022/05/16 16:47:59;;;;;;;4.90;4.43;;;;;;;;;;10362304;28;20508;-60
2022/05/16 16:58:24;;;;;;;8.98;4.15;;;;;;;;;;10307142;28;20468;-60
2022/05/16 17:03:24;;;;;;;9.38;3.92;;;;;;;;;;10362129;28;20064;-59
2022/05/16 17:08:22;;;;;;;7.10;4.13;;;;;;;;;;10358873;28;20094;-60
2022/05/16 17:13:23;;;;;;;5.68;3.78;;;;;;;;;;10358734;28;20084;-59
2022/05/16 17:18:21;;;;;;;6.65;4.22;;;;;;;;;;10362059;28;20044;-59
2022/05/16 17:23:21;;;;;;;4.85;4.10;;;;;;;;;;10362229;28;20060;-60
2022/05/16 17:28:23;;;;;;;10.23;5.85;;;;;;;;;;10361278;28;20072;-60
2022/05/16 17:33:21;;;;;;;10.45;8.40;;;;;;;;;;10353992;28;20064;-60
2022/05/16 17:38:42;;;;;;;8.88;7.28;;;;;;;;;;10346192;28;20067;-60
2022/05/16 17:43:40;;;;;;;9.85;5.95;;;;;;;;;;10355879;28;20078;-60
2022/05/16 17:48:38;;;;;;;7.70;5.55;;;;;;;;;;10350312;28;20068;-59
2022/05/16 17:53:37;;;;;;;7.18;6.20;;;;;;;;;;10354052;28;20543;-60
2022/05/16 17:58:36;;;;;;;7.03;6.30;;;;;;;;;;10353489;28;20071;-60
2022/05/16 18:03:35;;;;;;;9.70;5.00;;;;;;;;;;10352276;28;20086;-60
2022/05/16 18:08:33;;;;;;;13.40;11.48;;;;;;;;;;10354344;28;20067;-60
2022/05/16 18:13:31;;;;;;;26.13;16.90;;;;;;;;;;10356119;28;20107;-60
2022/05/16 18:18:31;;;;;;;11.73;7.55;;;;;;;;;;10353470;28;20285;-60
2022/05/16 18:23:29;;;;;;;7.55;5.60;;;;;;;;;;10358317;28;20165;-60
2022/05/16 18:28:28;;;;;;;7.97;6.43;;;;;;;;;;10355621;28;20076;-60
2022/05/16 18:33:27;;;;;;;7.15;4.95;;;;;;;;;;10352995;28;20075;-58
2022/05/16 18:38:27;;;;;;;6.05;3.45;;;;;;;;;;10355131;28;20068;-60
2022/05/16 18:54:20;;;;;;;5.70;3.13;;;;;;;;;;10349775;28;20072;-59
2022/05/16 18:59:18;;;;;;;5.80;4.53;;;;;;;;;;10352803;28;20063;-58
2022/05/16 19:04:16;;;;;;;3.58;2.90;;;;;;;;;;10352811;28;20075;-60
2022/05/16 19:09:14;;;;;;;3.83;2.97;;;;;;;;;;10355314;28;20071;-59
2022/05/16 19:14:14;;;;;;;5.18;3.03;;;;;;;;;;10355881;28;20059;-59
2022/05/16 19:19:12;;;;;;;5.28;3.90;;;;;;;;;;10344905;28;20504;-58
2022/05/16 19:24:11;;;;;;;6.00;4.88;;;;;;;;;;10353826;28;20539;-60
2022/05/16 19:34:26;;;;;;;9.18;3.70;;;;;;;;;;10357104;28;20044;-59
2022/05/16 19:39:25;;;;;;;15.88;12.82;;;;;;;;;;10356540;28;20058;-59
2022/05/16 19:44:43;;;;;;;12.88;10.45;;;;;;;;;;10356736;28;20072;-58
2022/05/16 19:49:43;;;;;;;9.70;5.82;;;;;;;;;;10353426;28;20437;-58
2022/05/16 19:54:42;;;;;;;4.07;2.92;;;;;;;;;;10349397;28;20070;-58
2022/05/16 19:59:40;;;;;;;6.70;2.97;;;;;;;;;;10355830;28;20067;-58
2022/05/16 20:04:38;;;;;;;4.47;3.10;;;;;;;;;;10354965;28;20086;-59
2022/05/16 20:09:38;;;;;;;7.00;3.75;;;;;;;;;;10354419;28;21602;-60
2022/05/16 20:14:36;;;;;;;8.55;4.10;;;;;;;;;;10347594;28;20048;-60
2022/05/16 20:19:34;;;;;;;6.45;3.55;;;;;;;;;;10355843;28;20082;-60
2022/05/16 20:29:49;;;;;;;6.15;3.22;;;;;;;;;;10343432;28;20060;-59
2022/05/16 20:34:48;;;;;;;3.42;3.10;;;;;;;;;;10348782;28;20082;-59
2022/05/16 20:39:47;;;;;;;5.55;3.35;;;;;;;;;;10354456;28;20072;-60
2022/05/16 20:44:46;;;;;;;5.82;4.35;;;;;;;;;;10359429;28;20087;-60
2022/05/16 20:49:45;;;;;;;10.93;4.40;;;;;;;;;;10353355;28;20079;-60
2022/05/16 20:54:43;;;;;;;3.83;3.17;;;;;;;;;;10350406;28;20076;-59
2022/05/16 20:59:42;;;;;;;3.45;2.90;;;;;;;;;;10350873;28;20067;-60
2022/05/16 21:04:41;;;;;;;3.40;2.75;;;;;;;;;;10353467;28;20075;-60
2022/05/16 21:09:40;;;;;;;5.82;3.20;;;;;;;;;;10351546;28;20397;-59
2022/05/16 21:14:38;;;;;;;5.72;3.15;;;;;;;;;;10352401;28;20090;-60
2022/05/16 21:19:37;;;;;;;5.50;3.00;;;;;;;;;;10359641;28;20105;-61
2022/05/16 21:24:35;;;;;;;4.95;3.38;;;;;;;;;;10359740;28;20419;-60
2022/05/16 21:29:37;;;;;;;4.28;2.67;;;;;;;;;;10358095;28;20075;-60
2022/05/16 21:34:35;;;;;;;3.97;3.03;;;;;;;;;;10358939;28;20063;-59
2022/05/16 21:39:33;;;;;;;4.95;3.13;;;;;;;;;;10361043;28;20071;-59
2022/05/16 21:49:48;;;;;;;6.38;3.42;;;;;;;;;;10355534;28;20101;-59
2022/05/16 21:54:47;;;;;;;7.88;3.10;;;;;;;;;;10355396;28;20076;-59
2022/05/16 21:59:45;;;;;;;3.75;3.25;;;;;;;;;;10359590;28;20524;-59
2022/05/16 22:04:43;;;;;;;13.50;3.40;;;;;;;;;;10358680;28;20068;-60
2022/05/16 22:09:43;;;;;;;4.55;3.85;;;;;;;;;;10354125;28;20075;-60
2022/05/16 22:14:41;;;;;;;6.63;3.00;;;;;;;;;;10360260;28;20075;-59
2022/05/16 22:19:40;;;;;;;5.32;3.45;;;;;;;;;;10360058;28;20603;-60
2022/05/16 22:24:38;;;;;;;4.72;3.42;;;;;;;;;;10359517;28;20087;-60
2022/05/16 22:29:38;;;;;;;5.78;3.10;;;;;;;;;;10360165;28;20064;-60
2022/05/16 22:34:36;;;;;;;6.70;3.05;;;;;;;;;;10359740;28;20079;-60
2022/05/16 22:39:34;;;;;;;3.15;2.85;;;;;;;;;;10359711;28;20451;-60
2022/05/16 22:44:32;;;;;;;9.20;3.03;;;;;;;;;;10359324;28;20048;-60
2022/05/16 22:49:32;;;;;;;3.85;2.65;;;;;;;;;;10357596;28;20052;-60
2022/05/16 22:54:30;;;;;;;12.07;3.35;;;;;;;;;;10356921;28;20510;-60
2022/05/16 22:59:28;;;;;;;8.82;2.90;;;;;;;;;;10358774;28;20441;-60
2022/05/16 23:04:27;;;;;;;5.03;3.58;;;;;;;;;;10357924;28;20055;-61
2022/05/16 23:09:26;;;;;;;4.53;3.28;;;;;;;;;;10358110;28;20040;-60
2022/05/16 23:14:24;;;;;;;4.65;3.10;;;;;;;;;;10357850;28;20067;-60
2022/05/16 23:19:23;;;;;;;3.25;2.95;;;;;;;;;;10358044;28;20044;-60
2022/05/16 23:24:21;;;;;;;16.90;3.67;;;;;;;;;;10358508;28;20043;-60
2022/05/16 23:29:21;;;;;;;5.43;3.25;;;;;;;;;;10358494;28;20515;-60
2022/05/16 23:34:19;;;;;;;6.47;3.65;;;;;;;;;;10357775;28;20083;-60
2022/05/16 23:39:18;;;;;;;5.57;3.10;;;;;;;;;;10356541;28;20075;-58
2022/05/16 23:44:16;;;;;;;3.35;3.05;;;;;;;;;;10357104;28;20040;-60
2022/05/16 23:49:17;;;;;;;5.93;3.50;;;;;;;;;;10356300;28;20059;-60
2022/05/16 23:54:15;;;;;;;4.45;3.15;;;;;;;;;;10357413;28;20080;-60
2022/05/16 23:59:13;;;;;;;3.47;3.20;;;;;;;;;;10356923;28;20550;-60
